sensor_id;sensor_type;location;lat;lon;timestamp;P1;durP1;ratioP1;P2;durP2;ratioP2
63016;SDS011;50274;45.640;11.756;2023-04-25T00:00:00;4.70;;;1.75;;
63016;SDS011;50274;45.640;11.756;2023-04-25T00:02:26;4.80;;;2.13;;
63016;SDS011;50274;45.640;11.756;2023-04-25T00:04:53;4.85;;;1.80;;
63016;SDS011;50274;45.640;11.756;2023-04-25T00:07:23;5.20;;;2.07;;
63016;SDS011;50274;45.640;11.756;2023-04-25T00:09:50;4.53;;;1.90;;
63016;SDS011;50274;45.640;11.756;2023-04-25T00:12:16;4.68;;;1.85;;
63016;SDS011;50274;45.640;11.756;2023-04-25T00:14:42;4.50;;;2.00;;
63016;SDS011;50274;45.640;11.756;2023-04-25T00:17:07;5.35;;;1.90;;
63016;SDS011;50274;45.640;11.756;2023-04-25T00:19:33;4.47;;;1.87;;
63016;SDS011;50274;45.640;11.756;2023-04-25T00:22:00;4.93;;;1.80;;
63016;SDS011;50274;45.640;11.756;2023-04-25T00:24:25;4.18;;;1.90;;
63016;SDS011;50274;45.640;11.756;2023-04-25T00:26:51;5.00;;;1.90;;
63016;SDS011;50274;45.640;11.756;2023-04-25T00:29:17;4.80;;;1.77;;
63016;SDS011;50274;45.640;11.756;2023-04-25T00:31:45;4.35;;;1.80;;
63016;SDS011;50274;45.640;11.756;2023-04-25T00:34:11;5.57;;;1.53;;
63016;SDS011;50274;45.640;11.756;2023-04-25T00:36:37;4.60;;;1.90;;
63016;SDS011;50274;45.640;11.756;2023-04-25T00:39:03;5.07;;;1.73;;
63016;SDS011;50274;45.640;11.756;2023-04-25T00:41:29;4.97;;;1.85;;
63016;SDS011;50274;45.640;11.756;2023-04-25T00:43:55;4.27;;;1.60;;
63016;SDS011;50274;45.640;11.756;2023-04-25T00:46:22;4.78;;;1.70;;
63016;SDS011;50274;45.640;11.756;2023-04-25T00:48:48;4.30;;;1.85;;
63016;SDS011;50274;45.640;11.756;2023-04-25T00:51:15;4.87;;;1.80;;
63016;SDS011;50274;45.640;11.756;2023-04-25T00:53:44;4.17;;;1.77;;
63016;SDS011;50274;45.640;11.756;2023-04-25T00:56:10;5.70;;;2.33;;
63016;SDS011;50274;45.640;11.756;2023-04-25T00:58:36;4.57;;;2.00;;
63016;SDS011;50274;45.640;11.756;2023-04-25T01:01:03;5.53;;;2.60;;
63016;SDS011;50274;45.640;11.756;2023-04-25T01:03:30;5.27;;;2.27;;
63016;SDS011;50274;45.640;11.756;2023-04-25T01:06:00;4.95;;;1.98;;
63016;SDS011;50274;45.640;11.756;2023-04-25T01:08:27;5.53;;;2.30;;
63016;SDS011;50274;45.640;11.756;2023-04-25T01:10:53;4.72;;;1.90;;
63016;SDS011;50274;45.640;11.756;2023-04-25T01:13:19;4.75;;;1.90;;
63016;SDS011;50274;45.640;11.756;2023-04-25T01:15:45;4.80;;;2.20;;
63016;SDS011;50274;45.640;11.756;2023-04-25T01:18:11;5.15;;;2.50;;
63016;SDS011;50274;45.640;11.756;2023-04-25T01:20:37;6.18;;;2.45;;
63016;SDS011;50274;45.640;11.756;2023-04-25T01:23:05;5.45;;;2.10;;
63016;SDS011;50274;45.640;11.756;2023-04-25T01:25:31;4.70;;;1.90;;
63016;SDS011;50274;45.640;11.756;2023-04-25T01:27:58;5.10;;;2.22;;
63016;SDS011;50274;45.640;11.756;2023-04-25T01:30:25;4.97;;;2.15;;
63016;SDS011;50274;45.640;11.756;2023-04-25T01:32:52;3.97;;;1.45;;
63016;SDS011;50274;45.640;11.756;2023-04-25T01:35:20;5.32;;;1.90;;
63016;SDS011;50274;45.640;11.756;2023-04-25T01:37:47;5.60;;;1.73;;
63016;SDS011;50274;45.640;11.756;2023-04-25T01:40:14;4.18;;;1.60;;
63016;SDS011;50274;45.640;11.756;2023-04-25T01:42:40;4.40;;;1.73;;
63016;SDS011;50274;45.640;11.756;2023-04-25T01:45:08;4.07;;;1.40;;
63016;SDS011;50274;45.640;11.756;2023-04-25T01:47:36;5.47;;;2.00;;
63016;SDS011;50274;45.640;11.756;2023-04-25T01:50:03;4.10;;;1.40;;
63016;SDS011;50274;45.640;11.756;2023-04-25T01:52:35;4.97;;;1.38;;
63016;SDS011;50274;45.640;11.756;2023-04-25T01:55:08;3.90;;;1.30;;
63016;SDS011;50274;45.640;11.756;2023-04-25T01:57:34;3.90;;;1.40;;
63016;SDS011;50274;45.640;11.756;2023-04-25T02:00:10;4.50;;;1.67;;
63016;SDS011;50274;45.640;11.756;2023-04-25T02:02:59;3.92;;;1.40;;
63016;SDS011;50274;45.640;11.756;2023-04-25T02:05:43;3.72;;;1.30;;
63016;SDS011;50274;45.640;11.756;2023-04-25T02:08:29;3.78;;;1.50;;
63016;SDS011;50274;45.640;11.756;2023-04-25T02:11:04;4.00;;;1.30;;
63016;SDS011;50274;45.640;11.756;2023-04-25T02:13:30;4.33;;;1.40;;
63016;SDS011;50274;45.640;11.756;2023-04-25T02:15:56;4.32;;;1.48;;
63016;SDS011;50274;45.640;11.756;2023-04-25T02:18:22;4.57;;;1.30;;
63016;SDS011;50274;45.640;11.756;2023-04-25T02:20:48;3.57;;;1.27;;
63016;SDS011;50274;45.640;11.756;2023-04-25T02:23:14;4.03;;;1.50;;
63016;SDS011;50274;45.640;11.756;2023-04-25T02:25:40;3.60;;;1.02;;
63016;SDS011;50274;45.640;11.756;2023-04-25T02:28:10;4.57;;;1.40;;
63016;SDS011;50274;45.640;11.756;2023-04-25T02:30:36;4.07;;;1.30;;
63016;SDS011;50274;45.640;11.756;2023-04-25T02:33:01;3.70;;;1.20;;
63016;SDS011;50274;45.640;11.756;2023-04-25T02:35:27;5.88;;;1.30;;
63016;SDS011;50274;45.640;11.756;2023-04-25T02:37:53;4.93;;;1.37;;
63016;SDS011;50274;45.640;11.756;2023-04-25T02:40:19;4.72;;;1.48;;
63016;SDS011;50274;45.640;11.756;2023-04-25T02:42:45;3.63;;;1.30;;
63016;SDS011;50274;45.640;11.756;2023-04-25T02:45:11;3.90;;;1.20;;
63016;SDS011;50274;45.640;11.756;2023-04-25T02:47:37;5.00;;;1.20;;
63016;SDS011;50274;45.640;11.756;2023-04-25T02:50:06;3.33;;;1.10;;
63016;SDS011;50274;45.640;11.756;2023-04-25T02:52:32;3.77;;;1.20;;
63016;SDS011;50274;45.640;11.756;2023-04-25T02:54:58;3.40;;;1.08;;
63016;SDS011;50274;45.640;11.756;2023-04-25T02:57:23;4.43;;;1.20;;
63016;SDS011;50274;45.640;11.756;2023-04-25T02:59:50;3.60;;;1.10;;
63016;SDS011;50274;45.640;11.756;2023-04-25T03:02:15;3.25;;;0.95;;
63016;SDS011;50274;45.640;11.756;2023-04-25T03:04:41;3.80;;;1.00;;
63016;SDS011;50274;45.640;11.756;2023-04-25T03:07:07;3.43;;;0.90;;
63016;SDS011;50274;45.640;11.756;2023-04-25T03:09:33;3.10;;;0.80;;
63016;SDS011;50274;45.640;11.756;2023-04-25T03:11:59;3.17;;;1.02;;
63016;SDS011;50274;45.640;11.756;2023-04-25T03:14:26;4.65;;;1.40;;
63016;SDS011;50274;45.640;11.756;2023-04-25T03:16:52;4.17;;;1.20;;
63016;SDS011;50274;45.640;11.756;2023-04-25T03:19:18;3.40;;;1.15;;
63016;SDS011;50274;45.640;11.756;2023-04-25T03:21:45;3.53;;;0.82;;
63016;SDS011;50274;45.640;11.756;2023-04-25T03:24:11;3.10;;;0.80;;
63016;SDS011;50274;45.640;11.756;2023-04-25T03:26:37;3.90;;;1.10;;
63016;SDS011;50274;45.640;11.756;2023-04-25T03:29:03;3.78;;;1.00;;
63016;SDS011;50274;45.640;11.756;2023-04-25T03:31:29;3.30;;;1.00;;
63016;SDS011;50274;45.640;11.756;2023-04-25T03:33:55;3.47;;;1.08;;
63016;SDS011;50274;45.640;11.756;2023-04-25T03:36:21;3.55;;;1.23;;
63016;SDS011;50274;45.640;11.756;2023-04-25T03:38:47;3.40;;;0.90;;
63016;SDS011;50274;45.640;11.756;2023-04-25T03:41:13;3.28;;;0.98;;
63016;SDS011;50274;45.640;11.756;2023-04-25T03:43:39;3.85;;;1.38;;
63016;SDS011;50274;45.640;11.756;2023-04-25T03:46:05;3.75;;;1.00;;
63016;SDS011;50274;45.640;11.756;2023-04-25T03:48:31;4.23;;;1.30;;
63016;SDS011;50274;45.640;11.756;2023-04-25T03:50:56;3.83;;;1.13;;
63016;SDS011;50274;45.640;11.756;2023-04-25T03:53:22;3.50;;;1.10;;
63016;SDS011;50274;45.640;11.756;2023-04-25T03:55:48;4.20;;;1.33;;
63016;SDS011;50274;45.640;11.756;2023-04-25T03:58:14;3.20;;;1.00;;
63016;SDS011;50274;45.640;11.756;2023-04-25T04:00:40;4.10;;;1.20;;
63016;SDS011;50274;45.640;11.756;2023-04-25T04:03:06;3.90;;;1.30;;
63016;SDS011;50274;45.640;11.756;2023-04-25T04:05:32;5.20;;;1.23;;
63016;SDS011;50274;45.640;11.756;2023-04-25T04:07:58;3.50;;;1.17;;
63016;SDS011;50274;45.640;11.756;2023-04-25T04:10:24;4.07;;;1.30;;
63016;SDS011;50274;45.640;11.756;2023-04-25T04:12:52;3.90;;;1.40;;
63016;SDS011;50274;45.640;11.756;2023-04-25T04:15:18;4.03;;;1.40;;
63016;SDS011;50274;45.640;11.756;2023-04-25T04:17:44;3.65;;;1.35;;
63016;SDS011;50274;45.640;11.756;2023-04-25T04:20:10;3.65;;;1.08;;
63016;SDS011;50274;45.640;11.756;2023-04-25T04:22:36;4.10;;;1.53;;
63016;SDS011;50274;45.640;11.756;2023-04-25T04:25:02;4.20;;;1.20;;
63016;SDS011;50274;45.640;11.756;2023-04-25T04:27:28;4.55;;;1.40;;
63016;SDS011;50274;45.640;11.756;2023-04-25T04:29:54;4.13;;;1.15;;
63016;SDS011;50274;45.640;11.756;2023-04-25T04:32:21;4.18;;;1.50;;
63016;SDS011;50274;45.640;11.756;2023-04-25T04:34:48;3.83;;;1.53;;
63016;SDS011;50274;45.640;11.756;2023-04-25T04:37:14;4.65;;;1.50;;
63016;SDS011;50274;45.640;11.756;2023-04-25T04:39:40;4.35;;;1.58;;
63016;SDS011;50274;45.640;11.756;2023-04-25T04:42:06;4.63;;;1.40;;
63016;SDS011;50274;45.640;11.756;2023-04-25T04:44:32;3.87;;;1.23;;
63016;SDS011;50274;45.640;11.756;2023-04-25T04:46:59;4.53;;;1.27;;
63016;SDS011;50274;45.640;11.756;2023-04-25T04:49:25;3.90;;;1.20;;
63016;SDS011;50274;45.640;11.756;2023-04-25T04:51:53;3.95;;;1.25;;
63016;SDS011;50274;45.640;11.756;2023-04-25T04:54:19;4.10;;;1.30;;
63016;SDS011;50274;45.640;11.756;2023-04-25T04:56:45;3.67;;;1.20;;
63016;SDS011;50274;45.640;11.756;2023-04-25T04:59:11;4.93;;;1.38;;
63016;SDS011;50274;45.640;11.756;2023-04-25T05:01:37;3.50;;;1.03;;
63016;SDS011;50274;45.640;11.756;2023-04-25T05:04:03;4.68;;;1.25;;
63016;SDS011;50274;45.640;11.756;2023-04-25T05:06:30;4.03;;;1.15;;
63016;SDS011;50274;45.640;11.756;2023-04-25T05:08:56;4.32;;;1.63;;
63016;SDS011;50274;45.640;11.756;2023-04-25T05:11:22;3.83;;;1.20;;
63016;SDS011;50274;45.640;11.756;2023-04-25T05:13:51;3.70;;;1.17;;
63016;SDS011;50274;45.640;11.756;2023-04-25T05:16:17;3.83;;;1.20;;
63016;SDS011;50274;45.640;11.756;2023-04-25T05:18:44;4.43;;;1.35;;
63016;SDS011;50274;45.640;11.756;2023-04-25T05:21:09;3.73;;;1.10;;
63016;SDS011;50274;45.640;11.756;2023-04-25T05:23:35;4.43;;;1.30;;
63016;SDS011;50274;45.640;11.756;2023-04-25T05:26:01;4.25;;;1.40;;
63016;SDS011;50274;45.640;11.756;2023-04-25T05:28:27;4.00;;;1.27;;
63016;SDS011;50274;45.640;11.756;2023-04-25T05:30:53;4.85;;;1.45;;
63016;SDS011;50274;45.640;11.756;2023-04-25T05:33:19;8.63;;;2.10;;
63016;SDS011;50274;45.640;11.756;2023-04-25T05:35:45;6.03;;;1.90;;
63016;SDS011;50274;45.640;11.756;2023-04-25T05:38:11;3.97;;;1.48;;
63016;SDS011;50274;45.640;11.756;2023-04-25T05:40:37;4.13;;;1.50;;
63016;SDS011;50274;45.640;11.756;2023-04-25T05:43:02;4.40;;;1.50;;
63016;SDS011;50274;45.640;11.756;2023-04-25T05:45:28;4.28;;;1.42;;
63016;SDS011;50274;45.640;11.756;2023-04-25T05:47:54;3.92;;;1.10;;
63016;SDS011;50274;45.640;11.756;2023-04-25T05:50:20;3.75;;;1.20;;
63016;SDS011;50274;45.640;11.756;2023-04-25T05:52:46;4.17;;;1.50;;
63016;SDS011;50274;45.640;11.756;2023-04-25T05:55:12;4.45;;;1.60;;
63016;SDS011;50274;45.640;11.756;2023-04-25T05:57:38;4.65;;;1.60;;
63016;SDS011;50274;45.640;11.756;2023-04-25T06:00:07;5.70;;;1.90;;
63016;SDS011;50274;45.640;11.756;2023-04-25T06:02:34;5.83;;;2.07;;
63016;SDS011;50274;45.640;11.756;2023-04-25T06:05:00;8.98;;;2.67;;
63016;SDS011;50274;45.640;11.756;2023-04-25T06:07:28;6.80;;;2.60;;
63016;SDS011;50274;45.640;11.756;2023-04-25T06:09:57;6.25;;;2.38;;
63016;SDS011;50274;45.640;11.756;2023-04-25T06:12:24;5.32;;;2.00;;
63016;SDS011;50274;45.640;11.756;2023-04-25T06:14:50;5.43;;;1.93;;
63016;SDS011;50274;45.640;11.756;2023-04-25T06:17:16;4.45;;;1.50;;
63016;SDS011;50274;45.640;11.756;2023-04-25T06:19:41;4.37;;;1.20;;
63016;SDS011;50274;45.640;11.756;2023-04-25T06:22:07;5.75;;;1.75;;
63016;SDS011;50274;45.640;11.756;2023-04-25T06:24:33;4.13;;;1.20;;
63016;SDS011;50274;45.640;11.756;2023-04-25T06:27:01;4.57;;;1.60;;
63016;SDS011;50274;45.640;11.756;2023-04-25T06:29:30;4.00;;;1.30;;
63016;SDS011;50274;45.640;11.756;2023-04-25T06:31:57;4.72;;;1.60;;
63016;SDS011;50274;45.640;11.756;2023-04-25T06:34:22;4.07;;;1.50;;
63016;SDS011;50274;45.640;11.756;2023-04-25T06:36:50;3.53;;;1.10;;
63016;SDS011;50274;45.640;11.756;2023-04-25T06:39:19;3.83;;;1.37;;
63016;SDS011;50274;45.640;11.756;2023-04-25T06:41:47;5.45;;;1.35;;
63016;SDS011;50274;45.640;11.756;2023-04-25T06:44:15;3.97;;;1.42;;
63016;SDS011;50274;45.640;11.756;2023-04-25T06:46:42;4.82;;;1.67;;
63016;SDS011;50274;45.640;11.756;2023-04-25T06:49:07;4.63;;;1.30;;
63016;SDS011;50274;45.640;11.756;2023-04-25T06:51:33;5.38;;;1.60;;
63016;SDS011;50274;45.640;11.756;2023-04-25T06:53:59;4.47;;;1.37;;
63016;SDS011;50274;45.640;11.756;2023-04-25T06:56:25;5.28;;;1.50;;
63016;SDS011;50274;45.640;11.756;2023-04-25T06:58:51;5.43;;;2.00;;
63016;SDS011;50274;45.640;11.756;2023-04-25T07:01:17;5.55;;;1.75;;
63016;SDS011;50274;45.640;11.756;2023-04-25T07:03:57;6.07;;;2.00;;
63016;SDS011;50274;45.640;11.756;2023-04-25T07:06:23;5.80;;;1.90;;
63016;SDS011;50274;45.640;11.756;2023-04-25T07:08:51;7.60;;;2.90;;
63016;SDS011;50274;45.640;11.756;2023-04-25T07:11:17;7.13;;;2.43;;
63016;SDS011;50274;45.640;11.756;2023-04-25T07:13:43;6.82;;;2.45;;
63016;SDS011;50274;45.640;11.756;2023-04-25T07:16:17;8.30;;;2.30;;
63016;SDS011;50274;45.640;11.756;2023-04-25T07:18:45;6.60;;;1.98;;
63016;SDS011;50274;45.640;11.756;2023-04-25T07:21:10;4.90;;;1.60;;
63016;SDS011;50274;45.640;11.756;2023-04-25T07:23:36;7.18;;;2.42;;
63016;SDS011;50274;45.640;11.756;2023-04-25T07:26:05;6.65;;;2.25;;
63016;SDS011;50274;45.640;11.756;2023-04-25T07:28:33;5.20;;;1.93;;
63016;SDS011;50274;45.640;11.756;2023-04-25T07:30:59;4.22;;;1.40;;
63016;SDS011;50274;45.640;11.756;2023-04-25T07:33:25;4.60;;;1.50;;
63016;SDS011;50274;45.640;11.756;2023-04-25T07:35:51;5.07;;;1.50;;
63016;SDS011;50274;45.640;11.756;2023-04-25T07:38:17;5.40;;;1.50;;
63016;SDS011;50274;45.640;11.756;2023-04-25T07:40:43;6.07;;;1.80;;
63016;SDS011;50274;45.640;11.756;2023-04-25T07:43:09;4.83;;;1.80;;
63016;SDS011;50274;45.640;11.756;2023-04-25T07:45:37;4.30;;;1.77;;
63016;SDS011;50274;45.640;11.756;2023-04-25T07:48:03;5.35;;;1.77;;
63016;SDS011;50274;45.640;11.756;2023-04-25T07:50:33;5.63;;;1.80;;
63016;SDS011;50274;45.640;11.756;2023-04-25T07:52:59;4.22;;;1.42;;
63016;SDS011;50274;45.640;11.756;2023-04-25T07:55:24;4.03;;;1.70;;
63016;SDS011;50274;45.640;11.756;2023-04-25T07:57:50;4.78;;;1.58;;
63016;SDS011;50274;45.640;11.756;2023-04-25T08:00:16;4.95;;;1.77;;
63016;SDS011;50274;45.640;11.756;2023-04-25T08:02:42;3.92;;;1.30;;
63016;SDS011;50274;45.640;11.756;2023-04-25T08:05:08;3.73;;;1.37;;
63016;SDS011;50274;45.640;11.756;2023-04-25T08:07:37;4.78;;;1.58;;
63016;SDS011;50274;45.640;11.756;2023-04-25T08:10:04;5.38;;;1.67;;
63016;SDS011;50274;45.640;11.756;2023-04-25T08:12:31;8.10;;;2.05;;
63016;SDS011;50274;45.640;11.756;2023-04-25T08:14:57;6.37;;;2.07;;
63016;SDS011;50274;45.640;11.756;2023-04-25T08:17:23;6.30;;;2.40;;
63016;SDS011;50274;45.640;11.756;2023-04-25T08:19:49;6.60;;;2.28;;
63016;SDS011;50274;45.640;11.756;2023-04-25T08:22:16;6.65;;;2.75;;
63016;SDS011;50274;45.640;11.756;2023-04-25T08:24:45;5.73;;;2.30;;
63016;SDS011;50274;45.640;11.756;2023-04-25T08:27:11;5.70;;;2.80;;
63016;SDS011;50274;45.640;11.756;2023-04-25T08:29:37;4.78;;;2.00;;
63016;SDS011;50274;45.640;11.756;2023-04-25T08:32:09;6.70;;;2.33;;
63016;SDS011;50274;45.640;11.756;2023-04-25T08:34:35;5.53;;;2.50;;
63016;SDS011;50274;45.640;11.756;2023-04-25T08:37:03;5.30;;;2.30;;
63016;SDS011;50274;45.640;11.756;2023-04-25T08:39:29;5.30;;;2.30;;
63016;SDS011;50274;45.640;11.756;2023-04-25T08:41:56;4.50;;;1.90;;
63016;SDS011;50274;45.640;11.756;2023-04-25T08:44:22;5.75;;;2.53;;
63016;SDS011;50274;45.640;11.756;2023-04-25T08:46:48;5.40;;;2.50;;
63016;SDS011;50274;45.640;11.756;2023-04-25T08:49:16;5.45;;;1.90;;
63016;SDS011;50274;45.640;11.756;2023-04-25T08:51:44;5.40;;;1.15;;
63016;SDS011;50274;45.640;11.756;2023-04-25T08:54:16;4.30;;;1.17;;
63016;SDS011;50274;45.640;11.756;2023-04-25T08:56:45;4.63;;;1.25;;
63016;SDS011;50274;45.640;11.756;2023-04-25T08:59:13;4.63;;;1.37;;
63016;SDS011;50274;45.640;11.756;2023-04-25T09:01:41;5.90;;;1.50;;
63016;SDS011;50274;45.640;11.756;2023-04-25T09:04:07;5.13;;;1.90;;
63016;SDS011;50274;45.640;11.756;2023-04-25T09:06:33;4.70;;;1.58;;
63016;SDS011;50274;45.640;11.756;2023-04-25T09:09:03;4.70;;;1.70;;
63016;SDS011;50274;45.640;11.756;2023-04-25T09:11:30;4.53;;;1.90;;
63016;SDS011;50274;45.640;11.756;2023-04-25T09:14:15;3.90;;;1.50;;
63016;SDS011;50274;45.640;11.756;2023-04-25T09:19:28;3.45;;;1.00;;
63016;SDS011;50274;45.640;11.756;2023-04-25T09:22:02;3.33;;;1.17;;
63016;SDS011;50274;45.640;11.756;2023-04-25T09:24:36;3.50;;;0.95;;
63016;SDS011;50274;45.640;11.756;2023-04-25T09:27:05;3.65;;;1.02;;
63016;SDS011;50274;45.640;11.756;2023-04-25T09:29:33;3.63;;;1.00;;
63016;SDS011;50274;45.640;11.756;2023-04-25T09:34:56;4.90;;;1.10;;
63016;SDS011;50274;45.640;11.756;2023-04-25T09:37:23;3.58;;;1.00;;
63016;SDS011;50274;45.640;11.756;2023-04-25T09:39:54;3.78;;;0.98;;
63016;SDS011;50274;45.640;11.756;2023-04-25T09:42:30;3.90;;;0.98;;
63016;SDS011;50274;45.640;11.756;2023-04-25T09:44:59;3.42;;;0.90;;
63016;SDS011;50274;45.640;11.756;2023-04-25T09:47:28;3.80;;;1.33;;
63016;SDS011;50274;45.640;11.756;2023-04-25T09:49:54;3.78;;;0.90;;
63016;SDS011;50274;45.640;11.756;2023-04-25T09:52:21;3.40;;;1.02;;
63016;SDS011;50274;45.640;11.756;2023-04-25T09:54:49;3.50;;;1.00;;
63016;SDS011;50274;45.640;11.756;2023-04-25T09:57:19;3.72;;;1.13;;
63016;SDS011;50274;45.640;11.756;2023-04-25T09:59:50;4.20;;;0.90;;
63016;SDS011;50274;45.640;11.756;2023-04-25T10:02:38;3.72;;;1.00;;
63016;SDS011;50274;45.640;11.756;2023-04-25T10:05:07;3.60;;;1.10;;
63016;SDS011;50274;45.640;11.756;2023-04-25T10:07:33;3.67;;;0.80;;
63016;SDS011;50274;45.640;11.756;2023-04-25T10:10:03;3.80;;;1.02;;
63016;SDS011;50274;45.640;11.756;2023-04-25T10:12:31;3.50;;;1.00;;
63016;SDS011;50274;45.640;11.756;2023-04-25T10:14:58;4.10;;;1.02;;
63016;SDS011;50274;45.640;11.756;2023-04-25T10:17:28;3.08;;;0.80;;
63016;SDS011;50274;45.640;11.756;2023-04-25T10:19:54;3.88;;;0.80;;
63016;SDS011;50274;45.640;11.756;2023-04-25T10:22:23;3.47;;;1.17;;
63016;SDS011;50274;45.640;11.756;2023-04-25T10:24:58;2.83;;;0.80;;
63016;SDS011;50274;45.640;11.756;2023-04-25T10:27:26;4.03;;;0.93;;
63016;SDS011;50274;45.640;11.756;2023-04-25T10:30:13;3.53;;;1.00;;
63016;SDS011;50274;45.640;11.756;2023-04-25T10:32:41;3.30;;;0.90;;
63016;SDS011;50274;45.640;11.756;2023-04-25T10:46:37;5.10;;;0.70;;
63016;SDS011;50274;45.640;11.756;2023-04-25T10:49:05;3.53;;;0.80;;
63016;SDS011;50274;45.640;11.756;2023-04-25T10:51:34;3.93;;;0.70;;
63016;SDS011;50274;45.640;11.756;2023-04-25T10:54:05;2.45;;;0.65;;
63016;SDS011;50274;45.640;11.756;2023-04-25T10:56:41;3.70;;;1.08;;
63016;SDS011;50274;45.640;11.756;2023-04-25T10:59:14;3.17;;;0.80;;
63016;SDS011;50274;45.640;11.756;2023-04-25T11:01:42;2.97;;;0.60;;
63016;SDS011;50274;45.640;11.756;2023-04-25T11:04:22;4.37;;;0.80;;
63016;SDS011;50274;45.640;11.756;2023-04-25T11:07:07;2.92;;;0.75;;
63016;SDS011;50274;45.640;11.756;2023-04-25T11:09:42;4.05;;;0.95;;
63016;SDS011;50274;45.640;11.756;2023-04-25T11:12:11;3.75;;;0.73;;
63016;SDS011;50274;45.640;11.756;2023-04-25T11:14:45;3.13;;;0.85;;
63016;SDS011;50274;45.640;11.756;2023-04-25T11:17:16;6.30;;;0.97;;
63016;SDS011;50274;45.640;11.756;2023-04-25T11:19:45;2.92;;;0.90;;
63016;SDS011;50274;45.640;11.756;2023-04-25T11:22:17;5.07;;;1.05;;
63016;SDS011;50274;45.640;11.756;2023-04-25T11:24:44;3.33;;;1.00;;
63016;SDS011;50274;45.640;11.756;2023-04-25T11:27:15;4.05;;;1.17;;
63016;SDS011;50274;45.640;11.756;2023-04-25T11:29:42;4.33;;;0.93;;
63016;SDS011;50274;45.640;11.756;2023-04-25T11:32:08;3.65;;;1.13;;
63016;SDS011;50274;45.640;11.756;2023-04-25T11:34:34;4.97;;;1.13;;
63016;SDS011;50274;45.640;11.756;2023-04-25T11:37:03;3.60;;;1.00;;
63016;SDS011;50274;45.640;11.756;2023-04-25T11:39:29;2.95;;;0.90;;
63016;SDS011;50274;45.640;11.756;2023-04-25T11:41:55;3.50;;;0.80;;
63016;SDS011;50274;45.640;11.756;2023-04-25T11:44:21;2.88;;;0.70;;
63016;SDS011;50274;45.640;11.756;2023-04-25T11:46:47;3.50;;;0.90;;
63016;SDS011;50274;45.640;11.756;2023-04-25T11:49:13;3.20;;;0.90;;
63016;SDS011;50274;45.640;11.756;2023-04-25T11:51:40;2.83;;;0.65;;
63016;SDS011;50274;45.640;11.756;2023-04-25T11:54:08;2.83;;;0.70;;
63016;SDS011;50274;45.640;11.756;2023-04-25T11:56:34;3.63;;;0.80;;
63016;SDS011;50274;45.640;11.756;2023-04-25T11:59:00;3.42;;;0.68;;
63016;SDS011;50274;45.640;11.756;2023-04-25T12:01:29;3.47;;;0.60;;
63016;SDS011;50274;45.640;11.756;2023-04-25T12:03:58;2.33;;;0.50;;
63016;SDS011;50274;45.640;11.756;2023-04-25T12:06:38;2.10;;;0.40;;
63016;SDS011;50274;45.640;11.756;2023-04-25T12:09:06;4.00;;;1.00;;
63016;SDS011;50274;45.640;11.756;2023-04-25T12:11:47;2.58;;;0.52;;
63016;SDS011;50274;45.640;11.756;2023-04-25T12:14:21;2.50;;;0.50;;
63016;SDS011;50274;45.640;11.756;2023-04-25T12:16:49;4.05;;;0.63;;
63016;SDS011;50274;45.640;11.756;2023-04-25T12:19:19;2.67;;;0.50;;
63016;SDS011;50274;45.640;11.756;2023-04-25T12:21:45;3.37;;;0.60;;
63016;SDS011;50274;45.640;11.756;2023-04-25T12:24:12;3.08;;;0.80;;
63016;SDS011;50274;45.640;11.756;2023-04-25T12:26:45;2.78;;;0.70;;
63016;SDS011;50274;45.640;11.756;2023-04-25T12:29:16;2.50;;;0.65;;
63016;SDS011;50274;45.640;11.756;2023-04-25T12:31:46;2.85;;;0.60;;
63016;SDS011;50274;45.640;11.756;2023-04-25T12:34:12;3.03;;;0.70;;
63016;SDS011;50274;45.640;11.756;2023-04-25T12:36:38;2.75;;;0.60;;
63016;SDS011;50274;45.640;11.756;2023-04-25T12:39:04;2.53;;;0.52;;
63016;SDS011;50274;45.640;11.756;2023-04-25T12:41:33;2.60;;;0.40;;
63016;SDS011;50274;45.640;11.756;2023-04-25T12:43:59;2.65;;;0.50;;
63016;SDS011;50274;45.640;11.756;2023-04-25T12:46:27;2.80;;;0.50;;
63016;SDS011;50274;45.640;11.756;2023-04-25T12:48:53;3.20;;;0.50;;
63016;SDS011;50274;45.640;11.756;2023-04-25T12:51:20;2.53;;;0.60;;
63016;SDS011;50274;45.640;11.756;2023-04-25T12:53:46;3.03;;;0.60;;
63016;SDS011;50274;45.640;11.756;2023-04-25T12:56:11;2.90;;;0.50;;
63016;SDS011;50274;45.640;11.756;2023-04-25T12:58:38;2.47;;;0.60;;
63016;SDS011;50274;45.640;11.756;2023-04-25T13:01:06;2.47;;;0.57;;
63016;SDS011;50274;45.640;11.756;2023-04-25T13:03:32;2.55;;;0.50;;
63016;SDS011;50274;45.640;11.756;2023-04-25T13:05:59;3.53;;;0.60;;
63016;SDS011;50274;45.640;11.756;2023-04-25T13:08:25;3.08;;;0.63;;
63016;SDS011;50274;45.640;11.756;2023-04-25T13:10:51;2.78;;;0.60;;
63016;SDS011;50274;45.640;11.756;2023-04-25T13:13:17;2.20;;;0.50;;
63016;SDS011;50274;45.640;11.756;2023-04-25T13:15:45;3.33;;;0.77;;
63016;SDS011;50274;45.640;11.756;2023-04-25T13:18:13;4.30;;;0.82;;
63016;SDS011;50274;45.640;11.756;2023-04-25T13:20:40;3.20;;;0.98;;
63016;SDS011;50274;45.640;11.756;2023-04-25T13:23:06;3.20;;;0.73;;
63016;SDS011;50274;45.640;11.756;2023-04-25T13:25:31;3.10;;;0.80;;
63016;SDS011;50274;45.640;11.756;2023-04-25T13:27:58;2.90;;;0.80;;
63016;SDS011;50274;45.640;11.756;2023-04-25T13:30:23;2.92;;;0.70;;
63016;SDS011;50274;45.640;11.756;2023-04-25T13:32:49;3.27;;;0.80;;
63016;SDS011;50274;45.640;11.756;2023-04-25T13:35:16;3.40;;;0.90;;
63016;SDS011;50274;45.640;11.756;2023-04-25T13:37:42;3.15;;;0.70;;
63016;SDS011;50274;45.640;11.756;2023-04-25T13:40:09;2.63;;;0.65;;
63016;SDS011;50274;45.640;11.756;2023-04-25T13:42:38;3.20;;;1.00;;
63016;SDS011;50274;45.640;11.756;2023-04-25T13:45:05;2.42;;;0.60;;
63016;SDS011;50274;45.640;11.756;2023-04-25T13:47:32;3.50;;;0.90;;
63016;SDS011;50274;45.640;11.756;2023-04-25T13:49:58;2.85;;;0.65;;
63016;SDS011;50274;45.640;11.756;2023-04-25T13:52:25;2.92;;;0.70;;
63016;SDS011;50274;45.640;11.756;2023-04-25T13:54:51;3.30;;;0.67;;
63016;SDS011;50274;45.640;11.756;2023-04-25T13:57:17;2.80;;;0.70;;
63016;SDS011;50274;45.640;11.756;2023-04-25T13:59:43;2.70;;;0.70;;
63016;SDS011;50274;45.640;11.756;2023-04-25T14:02:09;3.03;;;0.80;;
63016;SDS011;50274;45.640;11.756;2023-04-25T14:04:35;3.92;;;1.27;;
63016;SDS011;50274;45.640;11.756;2023-04-25T14:07:03;3.63;;;1.27;;
63016;SDS011;50274;45.640;11.756;2023-04-25T14:09:30;4.85;;;1.55;;
63016;SDS011;50274;45.640;11.756;2023-04-25T14:11:59;5.23;;;2.00;;
63016;SDS011;50274;45.640;11.756;2023-04-25T14:14:28;6.47;;;1.85;;
63016;SDS011;50274;45.640;11.756;2023-04-25T14:16:54;4.80;;;2.00;;
63016;SDS011;50274;45.640;11.756;2023-04-25T14:19:22;4.22;;;1.38;;
63016;SDS011;50274;45.640;11.756;2023-04-25T14:21:48;3.63;;;1.17;;
63016;SDS011;50274;45.640;11.756;2023-04-25T14:24:14;4.13;;;1.30;;
63016;SDS011;50274;45.640;11.756;2023-04-25T14:26:40;3.90;;;1.40;;
63016;SDS011;50274;45.640;11.756;2023-04-25T14:29:07;3.83;;;1.40;;
63016;SDS011;50274;45.640;11.756;2023-04-25T14:31:34;3.53;;;1.42;;
63016;SDS011;50274;45.640;11.756;2023-04-25T14:34:00;3.80;;;1.20;;
63016;SDS011;50274;45.640;11.756;2023-04-25T14:36:29;4.03;;;1.25;;
63016;SDS011;50274;45.640;11.756;2023-04-25T14:38:56;3.83;;;1.10;;
63016;SDS011;50274;45.640;11.756;2023-04-25T14:41:23;3.75;;;1.30;;
63016;SDS011;50274;45.640;11.756;2023-04-25T14:43:50;4.78;;;1.17;;
63016;SDS011;50274;45.640;11.756;2023-04-25T14:46:16;3.47;;;1.10;;
63016;SDS011;50274;45.640;11.756;2023-04-25T14:48:42;3.90;;;0.77;;
63016;SDS011;50274;45.640;11.756;2023-04-25T14:51:08;2.92;;;0.70;;